createdAt,value
2019-06-01T00:02:23.129Z,95.60
2019-06-01T00:04:57.918Z,95.50
2019-06-01T00:07:32.607Z,95.50
2019-06-01T00:10:08.306Z,95.60
2019-06-01T00:12:43.485Z,95.40
2019-06-01T00:15:18.363Z,95.30
2019-06-01T00:17:52.977Z,95.50
2019-06-01T00:20:27.765Z,95.60
2019-06-01T00:23:02.460Z,95.50
2019-06-01T00:25:37.246Z,95.20
2019-06-01T00:28:11.926Z,95.50
2019-06-01T00:30:47.849Z,95.30
2019-06-01T00:33:22.710Z,95.30
2019-06-01T00:35:57.443Z,95.30
2019-06-01T00:38:32.136Z,95.50
2019-06-01T00:41:06.764Z,95.60
2019-06-01T00:43:42.098Z,95.40
2019-06-01T00:46:16.912Z,95.70
2019-06-01T00:48:52.116Z,95.70
2019-06-01T00:51:26.992Z,95.60
2019-06-01T00:54:01.771Z,95.60
2019-06-01T00:56:36.556Z,95.60
2019-06-01T00:59:11.266Z,95.50
2019-06-01T01:01:46.076Z,95.40
2019-06-01T01:04:20.838Z,95.40
2019-06-01T01:06:55.547Z,95.50
2019-06-01T01:09:30.310Z,95.70
2019-06-01T01:12:05.100Z,96.20
2019-06-01T01:14:39.784Z,96.60
2019-06-01T01:17:14.512Z,97.00
2019-06-01T01:19:49.709Z,96.80
2019-06-01T01:22:24.547Z,96.60
2019-06-01T01:24:59.164Z,96.20
2019-06-01T01:27:33.826Z,96.20
2019-06-01T01:30:08.589Z,96.80
2019-06-01T01:32:43.239Z,97.40
2019-06-01T01:35:18.006Z,98.20
2019-06-01T01:37:59.174Z,98.40
2019-06-01T01:40:33.938Z,98.10
2019-06-01T01:43:08.727Z,98.20
2019-06-01T01:45:43.504Z,98.30
2019-06-01T01:48:18.224Z,98.50
2019-06-01T01:50:52.898Z,98.90
2019-06-01T01:53:27.622Z,98.70
2019-06-01T01:56:02.341Z,98.10
2019-06-01T01:58:37.020Z,97.70
2019-06-01T02:01:22.384Z,97.30
2019-06-01T02:03:48.119Z,97.00
2019-06-01T02:06:22.882Z,96.80
2019-06-01T02:08:57.688Z,96.70
2019-06-01T02:11:32.313Z,96.60
2019-06-01T02:14:07.068Z,96.40
2019-06-01T02:16:41.819Z,95.90
2019-06-01T02:19:16.477Z,96.10
2019-06-01T02:21:52.259Z,96.00
2019-06-01T02:24:27.040Z,95.80
2019-06-01T02:27:01.655Z,95.40
2019-06-01T02:29:36.258Z,95.00
2019-06-01T02:32:10.907Z,95.30
2019-06-01T02:34:45.627Z,95.40
2019-06-01T02:37:20.279Z,95.10
2019-06-01T02:39:56.678Z,95.30
2019-06-01T02:42:31.852Z,95.70
2019-06-01T02:45:27.299Z,95.70
2019-06-01T02:48:03.736Z,95.90
2019-06-01T02:50:38.367Z,96.30
2019-06-01T02:53:13.103Z,96.60
2019-06-01T02:55:47.906Z,96.60
2019-06-01T02:58:22.599Z,96.60
2019-06-01T03:01:08.936Z,96.60
2019-06-01T03:03:44.875Z,96.60
2019-06-01T03:06:20.538Z,96.60
2019-06-01T03:08:57.703Z,96.60
2019-06-01T03:11:35.118Z,96.30
2019-06-01T03:14:12.040Z,95.70
2019-06-01T03:16:49.771Z,95.50
2019-06-01T03:19:25.995Z,95.30
2019-06-01T03:22:03.806Z,94.90
2019-06-01T03:24:38.352Z,94.00
2019-06-01T03:27:15.680Z,93.80
2019-06-01T03:29:57.685Z,93.00
2019-06-01T03:32:36.729Z,92.40
2019-06-01T03:35:09.024Z,91.20
2019-06-01T03:37:43.802Z,90.20
2019-06-01T03:40:23.864Z,87.20
2019-06-01T03:42:55.052Z,86.90
2019-06-01T03:45:29.874Z,84.20
2019-06-01T03:48:04.736Z,82.90
2019-06-01T03:50:39.561Z,81.20
2019-06-01T03:53:14.214Z,78.70
2019-06-01T03:55:48.907Z,77.30
2019-06-01T03:58:23.625Z,75.50
2019-06-01T04:00:58.680Z,76.10
2019-06-01T04:03:33.339Z,75.80
2019-06-01T04:06:08.030Z,73.70
2019-06-01T04:08:42.682Z,69.50
2019-06-01T04:11:17.250Z,64.40
2019-06-01T04:13:51.944Z,61.10
2019-06-01T04:16:26.695Z,59.80
2019-06-01T04:19:01.686Z,57.00
2019-06-01T04:21:36.509Z,56.00
2019-06-01T04:24:12.316Z,55.40
2019-06-01T04:26:47.239Z,55.70
2019-06-01T04:29:21.950Z,56.00
2019-06-01T04:31:56.563Z,56.80
2019-06-01T04:34:31.234Z,56.00
2019-06-01T04:37:07.014Z,57.00
2019-06-01T04:39:41.899Z,57.60
2019-06-01T04:42:16.658Z,57.80
2019-06-01T04:44:51.898Z,57.20
2019-06-01T04:47:26.743Z,56.90
2019-06-01T04:50:01.532Z,56.50
2019-06-01T04:52:36.229Z,56.30
2019-06-01T04:55:11.183Z,56.00
2019-06-01T04:57:45.862Z,57.40
2019-06-01T05:00:27.410Z,58.40
2019-06-01T05:03:05.328Z,57.70
2019-06-01T05:05:33.326Z,57.30
2019-06-01T05:08:09.314Z,57.00
2019-06-01T05:10:44.686Z,57.80
2019-06-01T05:13:19.444Z,57.80
2019-06-01T05:15:54.237Z,58.40
2019-06-01T05:18:29.491Z,58.30
2019-06-01T05:21:04.292Z,57.50
2019-06-01T05:23:39.049Z,56.90
2019-06-01T05:26:15.038Z,57.80
2019-06-01T05:28:49.900Z,57.30
2019-06-01T05:31:25.303Z,56.80
2019-06-01T05:34:00.112Z,56.40
2019-06-01T05:36:34.962Z,55.30
2019-06-01T05:39:10.337Z,54.70
2019-06-01T05:41:45.086Z,55.60
2019-06-01T05:44:19.784Z,56.00
2019-06-01T05:46:54.935Z,55.20
2019-06-01T05:49:29.622Z,56.00
2019-06-01T05:52:04.528Z,56.00
2019-06-01T05:54:39.217Z,54.50
2019-06-01T05:57:14.703Z,53.70
2019-06-01T05:59:49.518Z,48.50
2019-06-01T06:02:24.170Z,46.40
2019-06-01T06:04:58.782Z,45.80
2019-06-01T06:07:33.460Z,45.20
2019-06-01T06:10:08.978Z,49.20
2019-06-01T06:12:43.696Z,46.10
2019-06-01T06:15:19.628Z,46.40
2019-06-01T06:17:54.410Z,44.50
2019-06-01T06:20:29.253Z,45.30
2019-06-01T06:23:04.048Z,47.40
2019-06-01T06:25:41.282Z,45.20
2019-06-01T06:28:15.267Z,45.10
2019-06-01T06:30:50.019Z,45.70
2019-06-01T06:33:24.818Z,44.60
2019-06-01T06:35:59.592Z,45.20
2019-06-01T06:38:34.346Z,44.90
2019-06-01T06:41:09.156Z,47.30
2019-06-01T06:43:43.937Z,45.70
2019-06-01T06:46:18.724Z,45.20
2019-06-01T06:48:53.514Z,45.40
2019-06-01T06:51:28.138Z,46.10
2019-06-01T06:54:02.866Z,46.80
2019-06-01T06:56:37.551Z,47.30
2019-06-01T06:59:12.279Z,47.70
2019-06-01T07:01:47.119Z,45.10
2019-06-01T07:04:21.834Z,46.60
2019-06-01T07:06:56.508Z,46.20
2019-06-01T07:09:31.168Z,46.60
2019-06-01T07:12:05.938Z,44.80
2019-06-01T07:14:40.642Z,47.10
2019-06-01T07:17:15.963Z,45.70
2019-06-01T07:19:50.995Z,44.70
2019-06-01T07:22:25.841Z,46.00
2019-06-01T07:25:00.752Z,46.10
2019-06-01T07:27:35.488Z,49.60
2019-06-01T07:30:10.982Z,48.00
2019-06-01T07:32:45.734Z,45.20
2019-06-01T07:35:20.543Z,44.90
2019-06-01T07:37:55.302Z,47.40
2019-06-01T07:40:29.982Z,46.40
2019-06-01T07:43:04.738Z,48.40
2019-06-01T07:45:39.482Z,47.10
2019-06-01T07:48:14.188Z,46.30
2019-06-01T07:50:48.977Z,47.70
2019-06-01T07:53:24.097Z,47.20
2019-06-01T07:55:59.295Z,46.20
2019-06-01T07:58:33.991Z,48.90
2019-06-01T08:01:08.788Z,46.20
2019-06-01T08:03:43.573Z,44.80
2019-06-01T08:06:18.293Z,48.40
2019-06-01T08:08:53.355Z,48.30
2019-06-01T08:11:32.103Z,48.40
2019-06-01T08:14:04.835Z,48.90
2019-06-01T08:16:39.709Z,49.60
2019-06-01T08:19:14.459Z,49.80
2019-06-01T08:21:49.285Z,49.90
2019-06-01T08:24:24.233Z,50.40
2019-06-01T08:26:59.063Z,50.70
2019-06-01T08:29:33.808Z,48.00
2019-06-01T08:32:08.612Z,52.20
2019-06-01T08:34:43.360Z,50.30
2019-06-01T08:37:18.078Z,48.80
2019-06-01T08:39:52.742Z,51.40
2019-06-01T08:42:29.473Z,52.30
2019-06-01T08:45:06.438Z,49.30
2019-06-01T08:47:41.156Z,49.60
2019-06-01T08:50:16.118Z,50.50
2019-06-01T08:52:50.846Z,50.70
2019-06-01T08:55:26.098Z,49.80
2019-06-01T08:58:00.970Z,50.00
2019-06-01T09:00:35.708Z,49.60
2019-06-01T09:03:11.447Z,52.80
2019-06-01T09:05:46.267Z,50.00
2019-06-01T09:08:23.807Z,52.90
2019-06-01T09:10:57.422Z,53.00
2019-06-01T09:13:33.240Z,50.50
2019-06-01T09:16:08.142Z,51.60
2019-06-01T09:18:42.923Z,48.00
2019-06-01T09:21:17.615Z,49.70
2019-06-01T09:23:52.263Z,49.80
2019-06-01T09:26:27.767Z,49.40
2019-06-01T09:29:02.662Z,49.50
2019-06-01T09:31:37.416Z,50.60
2019-06-01T09:34:12.211Z,51.80
2019-06-01T09:36:46.903Z,49.40
2019-06-01T09:39:21.810Z,48.90
2019-06-01T09:41:56.457Z,49.70
2019-06-01T09:44:32.320Z,47.70
2019-06-01T09:47:08.257Z,49.10
2019-06-01T09:49:42.978Z,51.20
2019-06-01T09:52:18.600Z,49.40
2019-06-01T09:54:53.381Z,49.70
2019-06-01T09:57:29.837Z,48.50
2019-06-01T10:00:08.335Z,48.50
2019-06-01T10:02:43.090Z,49.70
2019-06-01T10:05:17.886Z,50.20
2019-06-01T10:07:52.648Z,50.80
2019-06-01T10:10:27.755Z,49.70
2019-06-01T10:13:02.423Z,51.40
2019-06-01T10:15:38.522Z,52.50
2019-06-01T10:18:13.436Z,49.70
2019-06-01T10:20:48.229Z,51.60
2019-06-01T10:23:22.975Z,49.80
2019-06-01T10:25:57.634Z,48.20
2019-06-01T10:28:33.486Z,51.10
2019-06-01T10:31:08.481Z,50.10
2019-06-01T10:33:43.504Z,49.80
2019-06-01T10:36:21.172Z,48.80
2019-06-01T10:38:54.438Z,48.50
2019-06-01T10:41:29.115Z,48.20
2019-06-01T10:44:03.868Z,48.10
2019-06-01T10:46:40.043Z,47.10
2019-06-01T10:49:14.882Z,47.80
2019-06-01T10:51:49.653Z,49.50
2019-06-01T10:54:24.441Z,50.50
2019-06-01T10:56:59.230Z,48.50
2019-06-01T10:59:34.278Z,50.10
2019-06-01T11:02:09.143Z,47.40
2019-06-01T11:04:43.781Z,47.70
2019-06-01T11:07:18.509Z,49.40
2019-06-01T11:09:53.267Z,46.90
2019-06-01T11:12:28.050Z,46.90
2019-06-01T11:15:02.829Z,48.10
2019-06-01T11:17:39.080Z,49.10
2019-06-01T11:20:14.574Z,49.10
2019-06-01T11:22:49.318Z,50.10
2019-06-01T11:25:24.107Z,49.10
2019-06-01T11:27:59.859Z,49.20
2019-06-01T11:30:35.667Z,49.00
2019-06-01T11:33:29.766Z,50.20
2019-06-01T11:36:04.627Z,49.90
2019-06-01T11:38:40.418Z,48.20
2019-06-01T11:41:18.522Z,48.10
2019-06-01T11:43:51.759Z,48.50
2019-06-01T11:46:26.374Z,49.40
2019-06-01T11:49:01.088Z,48.30
2019-06-01T11:51:36.887Z,48.80
2019-06-01T11:54:11.782Z,49.70
2019-06-01T11:56:46.538Z,47.90
2019-06-01T11:59:21.443Z,49.10
2019-06-01T12:01:56.195Z,48.60
2019-06-01T12:04:30.919Z,49.00
2019-06-01T12:07:16.877Z,46.60
2019-06-01T12:09:42.184Z,46.30
2019-06-01T12:12:16.940Z,49.20
2019-06-01T12:14:51.738Z,48.40
2019-06-01T12:17:26.357Z,48.70
2019-06-01T12:20:01.011Z,48.00
2019-06-01T12:22:36.695Z,48.60
2019-06-01T12:25:11.984Z,47.10
2019-06-01T12:27:46.666Z,48.30
2019-06-01T12:30:21.552Z,46.80
2019-06-01T12:32:56.327Z,48.50
2019-06-01T12:35:31.054Z,48.50
2019-06-01T12:38:07.041Z,48.10
2019-06-01T12:40:43.216Z,48.00
2019-06-01T12:43:18.283Z,47.70
2019-06-01T12:46:06.691Z,47.50
2019-06-01T12:48:29.318Z,49.30
2019-06-01T12:51:04.099Z,47.40
2019-06-01T12:53:38.850Z,48.80
2019-06-01T12:56:14.506Z,49.40
2019-06-01T12:58:49.135Z,49.10
2019-06-01T13:01:23.932Z,49.80
2019-06-01T13:03:58.686Z,47.00
2019-06-01T13:06:33.470Z,47.90
2019-06-01T13:09:08.836Z,46.40
2019-06-01T13:11:43.583Z,46.90
2019-06-01T13:14:18.307Z,47.10
2019-06-01T13:17:06.291Z,46.40
2019-06-01T13:19:29.463Z,47.20
2019-06-01T13:22:04.815Z,45.40
2019-06-01T13:24:39.428Z,46.70
2019-06-01T13:27:14.157Z,47.70
2019-06-01T13:29:50.067Z,46.10
2019-06-01T13:32:24.972Z,44.80
2019-06-01T13:34:59.622Z,46.60
2019-06-01T13:37:34.315Z,47.90
2019-06-01T13:40:09.229Z,50.20
2019-06-01T13:42:44.911Z,50.20
2019-06-01T13:45:19.781Z,49.90
2019-06-01T13:47:54.571Z,46.70
2019-06-01T13:50:29.253Z,48.10
2019-06-01T13:53:04.184Z,48.60
2019-06-01T13:55:38.943Z,49.50
2019-06-01T13:58:13.623Z,48.10
2019-06-01T14:00:48.406Z,48.70
2019-06-01T14:03:23.078Z,50.80
2019-06-01T14:06:00.881Z,49.50
2019-06-01T14:08:34.322Z,49.00
2019-06-01T14:11:09.080Z,47.20
2019-06-01T14:13:45.235Z,47.20
2019-06-01T14:16:20.280Z,49.50
2019-06-01T14:18:56.049Z,45.50
2019-06-01T14:21:30.690Z,45.30
2019-06-01T14:24:05.490Z,48.00
2019-06-01T14:26:40.181Z,48.20
2019-06-01T14:29:14.837Z,47.90
2019-06-01T14:31:51.002Z,48.30
2019-06-01T14:34:25.864Z,47.50
2019-06-01T14:37:00.641Z,48.80
2019-06-01T14:39:35.463Z,47.80
2019-06-01T14:42:10.199Z,49.00
2019-06-01T14:44:44.984Z,48.20
2019-06-01T14:47:19.741Z,47.50
2019-06-01T14:49:55.650Z,48.20
2019-06-01T14:52:30.447Z,46.90
2019-06-01T14:55:07.046Z,49.10
2019-06-01T14:57:42.371Z,48.00
2019-06-01T15:00:18.907Z,45.90
2019-06-01T15:02:54.451Z,46.10
2019-06-01T15:05:29.269Z,47.00
2019-06-01T15:08:04.038Z,45.90
2019-06-01T15:10:38.766Z,46.60
2019-06-01T15:13:13.455Z,46.30
2019-06-01T15:15:49.356Z,47.10
2019-06-01T15:18:24.177Z,46.60
2019-06-01T15:21:02.221Z,45.10
2019-06-01T15:23:37.140Z,46.40
2019-06-01T15:26:12.102Z,47.00
2019-06-01T15:28:46.851Z,46.40
2019-06-01T15:31:21.665Z,46.90
2019-06-01T15:33:57.383Z,46.70
2019-06-01T15:36:32.214Z,47.00
2019-06-01T15:39:23.481Z,47.20
2019-06-01T15:41:48.767Z,46.60
2019-06-01T15:44:23.454Z,47.40
2019-06-01T15:46:59.435Z,46.00
2019-06-01T15:49:34.427Z,46.70
2019-06-01T15:52:09.324Z,46.80
2019-06-01T15:54:44.083Z,47.20
2019-06-01T15:57:18.972Z,46.70
2019-06-01T15:59:54.527Z,46.70
2019-06-01T16:02:29.511Z,46.90
2019-06-01T16:05:07.153Z,45.30
2019-06-01T16:07:41.955Z,45.50
2019-06-01T16:10:16.740Z,46.30
2019-06-01T16:12:51.605Z,47.30
2019-06-01T16:15:26.323Z,47.50
2019-06-01T16:18:02.088Z,46.80
2019-06-01T16:20:37.083Z,46.40
2019-06-01T16:23:11.876Z,47.00
2019-06-01T16:25:57.398Z,47.40
2019-06-01T16:28:23.047Z,47.20
2019-06-01T16:30:58.534Z,47.10
2019-06-01T16:33:33.333Z,46.70
2019-06-01T16:36:08.936Z,47.30
2019-06-01T16:38:43.625Z,47.80
2019-06-01T16:41:18.286Z,49.00
2019-06-01T16:43:53.163Z,47.30
2019-06-01T16:46:27.850Z,46.40
2019-06-01T16:49:03.640Z,47.60
2019-06-01T16:51:52.776Z,48.10
2019-06-01T16:54:27.578Z,49.30
2019-06-01T16:57:03.049Z,48.70
2019-06-01T16:59:38.907Z,48.50
2019-06-01T17:02:13.676Z,48.30
2019-06-01T17:04:48.456Z,49.50
2019-06-01T17:07:23.106Z,49.20
2019-06-01T17:10:00.035Z,49.30
2019-06-01T17:12:36.323Z,50.40
2019-06-01T17:15:11.734Z,49.40
2019-06-01T17:17:46.432Z,50.30
2019-06-01T17:20:41.907Z,49.70
2019-06-01T17:23:27.522Z,50.20
2019-06-01T17:25:53.157Z,51.40
2019-06-01T17:28:27.923Z,51.90
2019-06-01T17:31:02.634Z,52.10
2019-06-01T17:33:37.832Z,52.10
2019-06-01T17:36:12.853Z,52.10
2019-06-01T17:38:47.516Z,52.30
2019-06-01T17:41:22.278Z,53.00
2019-06-01T17:43:57.050Z,53.20
2019-06-01T17:46:31.843Z,53.30
2019-06-01T17:49:06.513Z,53.80
2019-06-01T17:51:41.238Z,54.40
2019-06-01T17:54:16.006Z,54.50
2019-06-01T17:56:50.728Z,54.60
2019-06-01T17:59:25.498Z,54.80
2019-06-01T18:02:01.651Z,54.90
2019-06-01T18:04:36.635Z,54.80
2019-06-01T18:07:12.069Z,54.80
2019-06-01T18:09:46.891Z,54.60
2019-06-01T18:12:21.678Z,55.20
2019-06-01T18:14:56.798Z,58.10
2019-06-01T18:17:32.097Z,59.50
2019-06-01T18:20:08.968Z,60.50
2019-06-01T18:22:43.714Z,61.40
2019-06-01T18:25:20.474Z,61.60
2019-06-01T18:27:55.279Z,62.30
2019-06-01T18:30:30.147Z,62.70
2019-06-01T18:33:06.943Z,64.10
2019-06-01T18:35:42.034Z,64.60
2019-06-01T18:38:16.814Z,65.20
2019-06-01T18:40:51.571Z,65.70
2019-06-01T18:43:26.219Z,65.90
2019-06-01T18:46:00.978Z,66.90
2019-06-01T18:48:35.988Z,67.20
2019-06-01T18:51:12.210Z,67.50
2019-06-01T18:53:47.184Z,67.70
2019-06-01T18:56:21.953Z,67.30
2019-06-01T18:58:56.710Z,67.00
2019-06-01T19:01:31.361Z,68.30
2019-06-01T19:04:07.423Z,68.80
2019-06-01T19:06:42.251Z,70.40
2019-06-01T19:09:16.926Z,71.20
2019-06-01T19:11:51.606Z,71.90
2019-06-01T19:14:26.262Z,73.30
2019-06-01T19:17:01.048Z,73.10
2019-06-01T19:19:35.770Z,72.70
2019-06-01T19:22:10.463Z,72.30
2019-06-01T19:24:45.204Z,72.20
2019-06-01T19:27:19.892Z,72.20
2019-06-01T19:29:54.691Z,71.80
2019-06-01T19:32:47.702Z,71.30
2019-06-01T19:35:22.351Z,71.40
2019-06-01T19:37:58.773Z,73.20
2019-06-01T19:40:36.331Z,73.70
2019-06-01T19:43:11.543Z,73.60
2019-06-01T19:45:46.654Z,74.30
2019-06-01T19:48:24.540Z,75.00
2019-06-01T19:50:59.268Z,75.20
2019-06-01T19:53:33.950Z,75.70
2019-06-01T19:56:08.873Z,76.30
2019-06-01T19:58:43.626Z,76.70
2019-06-01T20:01:18.420Z,77.10
2019-06-01T20:04:12.521Z,76.20
2019-06-01T20:06:47.127Z,76.30
2019-06-01T20:09:21.846Z,76.20
2019-06-01T20:12:01.885Z,77.00
2019-06-01T20:14:32.802Z,76.80
2019-06-01T20:17:08.985Z,76.90
2019-06-01T20:19:43.707Z,77.20
2019-06-01T20:22:19.041Z,77.20
2019-06-01T20:24:53.857Z,77.50
2019-06-01T20:27:28.505Z,76.70
2019-06-01T20:30:04.276Z,76.60
2019-06-01T20:32:38.970Z,76.90
2019-06-01T20:35:14.058Z,77.10
2019-06-01T20:37:48.742Z,77.60
2019-06-01T20:40:23.464Z,77.00
2019-06-01T20:42:58.218Z,77.70
2019-06-01T20:45:32.930Z,78.40
2019-06-01T20:48:07.618Z,78.50
2019-06-01T20:50:42.411Z,78.20
2019-06-01T20:53:17.232Z,78.20
2019-06-01T20:55:52.703Z,82.10
2019-06-01T20:58:27.455Z,82.30
2019-06-01T21:01:02.239Z,82.00
2019-06-01T21:03:36.855Z,82.30
2019-06-01T21:06:11.574Z,82.90
2019-06-01T21:08:46.252Z,83.00
2019-06-01T21:11:22.239Z,83.50
2019-06-01T21:13:57.189Z,83.00
2019-06-01T21:16:32.102Z,82.40
2019-06-01T21:19:06.864Z,82.60
2019-06-01T21:21:41.533Z,83.10
2019-06-01T21:24:16.818Z,82.70
2019-06-01T21:26:51.812Z,82.20
2019-06-01T21:29:26.496Z,82.40
2019-06-01T21:32:01.210Z,82.90
2019-06-01T21:34:35.902Z,82.30
2019-06-01T21:37:10.665Z,82.70
2019-06-01T21:39:45.382Z,83.40
2019-06-01T21:42:20.107Z,83.10
2019-06-01T21:44:54.864Z,81.70
2019-06-01T21:47:29.643Z,82.30
2019-06-01T21:50:05.904Z,82.60
2019-06-01T21:52:40.657Z,83.20
2019-06-01T21:55:16.032Z,82.80
2019-06-01T21:57:50.868Z,82.90
2019-06-01T22:00:30.341Z,82.70
2019-06-01T22:03:07.007Z,82.80
2019-06-01T22:05:41.770Z,82.70
2019-06-01T22:08:17.161Z,82.40
2019-06-01T22:10:52.088Z,83.00
2019-06-01T22:13:27.574Z,84.70
2019-06-01T22:16:03.187Z,85.40
2019-06-01T22:18:37.789Z,84.70
2019-06-01T22:21:12.539Z,84.90
2019-06-01T22:23:47.174Z,84.80
2019-06-01T22:26:22.086Z,84.70
2019-06-01T22:28:56.809Z,84.80
2019-06-01T22:31:31.448Z,84.70
2019-06-01T22:34:06.170Z,84.60
2019-06-01T22:36:40.920Z,84.90
2019-06-01T22:39:15.639Z,84.50
2019-06-01T22:41:50.322Z,85.20
2019-06-01T22:44:26.154Z,85.40
2019-06-01T22:47:00.932Z,85.10
2019-06-01T22:49:35.658Z,85.70
2019-06-01T22:52:10.939Z,85.20
2019-06-01T22:54:45.659Z,84.60
2019-06-01T22:57:20.420Z,85.50
2019-06-01T22:59:55.626Z,86.20
2019-06-01T23:02:30.242Z,85.60
2019-06-01T23:05:06.501Z,86.20
2019-06-01T23:07:41.257Z,85.00
2019-06-01T23:10:16.267Z,86.30
2019-06-01T23:12:50.951Z,85.40
2019-06-01T23:15:25.799Z,85.00
2019-06-01T23:18:00.512Z,84.60
2019-06-01T23:20:35.226Z,86.70
2019-06-01T23:23:09.982Z,84.70
2019-06-01T23:25:44.704Z,85.10
2019-06-01T23:28:19.455Z,84.80
2019-06-01T23:30:54.179Z,83.90
2019-06-01T23:33:28.915Z,83.10
2019-06-01T23:36:03.779Z,82.40
2019-06-01T23:38:38.535Z,81.80
2019-06-01T23:41:13.198Z,82.30
2019-06-01T23:43:47.948Z,82.00
2019-06-01T23:46:22.888Z,81.80
2019-06-01T23:48:58.675Z,81.50
2019-06-01T23:51:33.943Z,81.60
2019-06-01T23:54:08.771Z,81.80
2019-06-01T23:56:43.560Z,81.60
2019-06-01T23:59:18.244Z,82.10
